AAL1738 KBHM-KSTL
Flight info
| Callsign | AAL1738 |
|---|---|
| Flight time | N/A |
| Altitude | 38000 |
| Route | KELCC VISQA BOOSH3 |
| Aircraft | A20N/M-SDE2E3FGHIRWXY/LB1 |
Departure
| Time | 2026-04-28 04:12 |
|---|---|
| Airport | Birmingham-Shuttlesworth International Airport (KBHM) |
Arrival
| Time | N/A |
|---|---|
| Airport | St. Louis Lambert International Airport (KSTL) |
| Time | Latitude | Longitude | Altitude | Speed | Heading |
|---|---|---|---|---|---|
| 2026-04-28 03:54 | 33.56380 | -86.75023 | 628 ft | 0 kts | 231° |
| 2026-04-28 04:03 | 33.56380 | -86.75022 | 628 ft | 2 kts | 228° |
| 2026-04-28 04:04 | 33.56393 | -86.75007 | 635 ft | 3 kts | 205° |
| 2026-04-28 04:04 | 33.56410 | -86.75007 | 631 ft | 2 kts | 131° |
| 2026-04-28 04:04 | 33.56412 | -86.75010 | 631 ft | 0 kts | 118° |
| 2026-04-28 04:06 | 33.56411 | -86.75005 | 639 ft | 1 kts | 106° |
| 2026-04-28 04:07 | 33.56411 | -86.74977 | 631 ft | 6 kts | 87° |
| 2026-04-28 04:07 | 33.56419 | -86.74907 | 626 ft | 11 kts | 77° |
| 2026-04-28 04:07 | 33.56475 | -86.74853 | 632 ft | 12 kts | 6° |
| 2026-04-28 04:07 | 33.56560 | -86.74851 | 636 ft | 13 kts | 359° |
| 2026-04-28 04:08 | 33.56618 | -86.74828 | 640 ft | 5 kts | 46° |
| 2026-04-28 04:08 | 33.56647 | -86.74782 | 636 ft | 11 kts | 54° |
| 2026-04-28 04:08 | 33.56709 | -86.74671 | 640 ft | 21 kts | 56° |
| 2026-04-28 04:08 | 33.56803 | -86.74511 | 640 ft | 23 kts | 56° |
| 2026-04-28 04:09 | 33.56897 | -86.74348 | 640 ft | 24 kts | 53° |
| 2026-04-28 04:09 | 33.56990 | -86.74187 | 639 ft | 23 kts | 55° |
| 2026-04-28 04:09 | 33.57081 | -86.74028 | 642 ft | 23 kts | 55° |
| 2026-04-28 04:09 | 33.57166 | -86.73882 | 640 ft | 20 kts | 56° |
| 2026-04-28 04:10 | 33.57249 | -86.73846 | 642 ft | 0 kts | 328° |
| 2026-04-28 04:10 | 33.57254 | -86.73849 | 642 ft | 3 kts | 327° |
| 2026-04-28 04:11 | 33.57296 | -86.73883 | 643 ft | 12 kts | 324° |
| 2026-04-28 04:11 | 33.57309 | -86.73987 | 645 ft | 16 kts | 236° |
| 2026-04-28 04:11 | 33.57125 | -86.74303 | 642 ft | 84 kts | 235° |
| 2026-04-28 04:11 | 33.56635 | -86.75152 | 637 ft | 162 kts | 235° |
| 2026-04-28 04:12 | 33.55974 | -86.76369 | 1186 ft | 182 kts | 232° |
| 2026-04-28 04:12 | 33.55267 | -86.77665 | 2070 ft | 188 kts | 227° |
| 2026-04-28 04:12 | 33.54528 | -86.79012 | 2851 ft | 203 kts | 229° |
| 2026-04-28 04:12 | 33.53712 | -86.80502 | 3282 ft | 224 kts | 231° |
| 2026-04-28 04:13 | 33.52838 | -86.82107 | 3864 ft | 235 kts | 231° |
| 2026-04-28 04:13 | 33.51962 | -86.83787 | 4596 ft | 240 kts | 238° |
| 2026-04-28 04:13 | 33.51365 | -86.85677 | 5404 ft | 246 kts | 255° |
| 2026-04-28 04:13 | 33.51324 | -86.87740 | 6192 ft | 253 kts | 277° |
| 2026-04-28 04:14 | 33.52031 | -86.89676 | 6961 ft | 264 kts | 302° |
| 2026-04-28 04:14 | 33.53444 | -86.91155 | 7661 ft | 276 kts | 321° |
| 2026-04-28 04:14 | 33.55140 | -86.92294 | 8392 ft | 282 kts | 329° |
| 2026-04-28 04:14 | 33.56955 | -86.93245 | 9138 ft | 287 kts | 333° |